Time;durP1;ratioP1;P1;durP2;ratioP2;P2;SDS_P1;SDS_P2;PMS_P1;PMS_P2;Temp;Humidity;BMP_temperature;BMP_pressure;BME280_temperature;BME280_humidity;BME280_pressure;Samples;Min_cycle;Max_cycle;Signal;HPM_P1;HPM_P2
2021/01/06 09:31:06;;;;;;;47.17;27.40;;;;;;;-0.53;96.32;95307.34;1057632;27;20724;-88
2021/01/06 09:31:38;;;;;;;41.15;24.92;;;;;;;-0.55;95.87;95308.56;1058149;28;20020;-79
2021/01/06 09:32:11;;;;;;;42.20;25.27;;;;;;;-0.60;95.96;95309.94;1047845;28;20103;-83
2021/01/06 09:32:43;;;;;;;46.30;27.27;;;;;;;-0.64;96.12;95313.94;1043611;28;20040;-82
2021/01/06 09:33:20;;;;;;;39.88;23.77;;;;;;;-0.59;96.19;95310.78;1039618;28;20021;-82
2021/01/06 09:33:50;;;;;;;41.38;25.42;;;;;;;-0.60;96.21;95304.72;1040839;28;20100;-80
2021/01/06 09:34:27;;;;;;;51.33;27.25;;;;;;;-0.60;96.31;95309.13;1035685;28;20030;-84
2021/01/06 09:35:00;;;;;;;45.83;26.30;;;;;;;-0.60;96.85;95317.75;1033728;28;20030;-84
2021/01/06 09:35:32;;;;;;;46.72;27.92;;;;;;;-0.69;96.68;95313.75;1040480;28;20601;-79
2021/01/06 09:36:02;;;;;;;43.30;25.13;;;;;;;-0.69;96.38;95315.56;1039413;28;20467;-82
2021/01/06 09:36:33;;;;;;;51.38;26.33;;;;;;;-0.70;96.07;95314.75;1038302;28;20061;-82
2021/01/06 09:37:03;;;;;;;45.80;27.13;;;;;;;-0.69;96.31;95318.97;1039671;28;20040;-82
2021/01/06 09:37:35;;;;;;;52.20;28.45;;;;;;;-0.76;96.42;95314.72;1039739;28;20029;-81
2021/01/06 09:38:07;;;;;;;46.58;27.85;;;;;;;-0.78;97.07;95311.53;1039836;28;20379;-82
2021/01/06 09:38:44;;;;;;;48.78;27.77;;;;;;;-0.80;97.13;95313.53;1043966;28;20043;-84
2021/01/06 09:39:19;;;;;;;47.72;26.50;;;;;;;-0.79;96.63;95308.13;1044504;28;20553;-83
2021/01/06 09:39:49;;;;;;;49.53;27.95;;;;;;;-0.75;96.48;95322.34;1035405;28;20034;-82
2021/01/06 09:40:20;;;;;;;45.80;26.70;;;;;;;-0.74;96.31;95315.31;1039687;28;20021;-82
2021/01/06 09:40:51;;;;;;;46.83;27.38;;;;;;;-0.72;96.35;95319.31;1043567;28;20107;-82
2021/01/06 09:41:28;;;;;;;44.90;26.52;;;;;;;-0.72;96.69;95323.72;1042590;28;20104;-82
2021/01/06 09:41:59;;;;;;;43.25;26.02;;;;;;;-0.70;97.26;95313.94;1043386;28;20049;-82
2021/01/06 09:42:29;;;;;;;45.95;25.63;;;;;;;-0.68;97.02;95317.94;1043969;28;20029;-81
2021/01/06 09:43:02;;;;;;;49.60;28.02;;;;;;;-0.69;96.91;95318.16;1043678;28;20089;-79
2021/01/06 09:43:37;;;;;;;47.65;27.38;;;;;;;-0.69;97.25;95318.97;1036780;28;20024;-81
2021/01/06 09:44:08;;;;;;;45.30;25.98;;;;;;;-0.65;96.76;95314.16;1040141;28;20077;-83
2021/01/06 09:44:38;;;;;;;44.95;26.85;;;;;;;-0.66;96.74;95321.16;1041556;28;20021;-82
2021/01/06 09:45:23;;;;;;;47.30;28.20;;;;;;;-0.70;96.61;95319.97;1046867;28;20469;-82
2021/01/06 09:45:53;;;;;;;46.75;27.35;;;;;;;-0.75;96.51;95327.53;1041663;28;20394;-81
2021/01/06 09:46:45;;;;;;;53.17;27.67;;;;;;;-0.72;96.86;95323.72;1047637;28;20029;-82
2021/01/06 09:47:28;;;;;;;47.53;26.75;;;;;;;-0.77;96.90;95321.72;1047779;28;20092;-82
2021/01/06 09:48:00;;;;;;;48.22;27.10;;;;;;;-0.76;96.64;95325.94;1052495;28;20028;-80
2021/01/06 09:48:30;;;;;;;45.63;27.17;;;;;;;-0.86;96.53;95325.50;1051551;28;20024;-82
2021/01/06 09:49:12;;;;;;;50.90;28.38;;;;;;;-0.85;96.81;95328.91;1047309;28;20025;-82
2021/01/06 09:49:44;;;;;;;47.75;27.50;;;;;;;-0.81;96.78;95328.34;1047108;28;20033;-81
2021/01/06 09:50:30;;;;;;;50.85;28.23;;;;;;;-0.83;96.56;95322.50;1047982;28;20016;-82
2021/01/06 09:51:00;;;;;;;52.15;27.77;;;;;;;-0.84;96.55;95326.09;1040042;28;20033;-81
2021/01/06 09:51:31;;;;;;;46.10;27.55;;;;;;;-0.79;96.76;95326.34;1039928;28;20025;-78
2021/01/06 09:52:23;;;;;;;48.95;28.15;;;;;;;-0.78;96.72;95327.94;1039859;28;20033;-82
2021/01/06 09:52:53;;;;;;;48.00;26.58;;;;;;;-0.71;96.44;95328.75;1032249;28;20109;-83
2021/01/06 09:53:25;;;;;;;51.00;27.63;;;;;;;-0.74;96.73;95326.53;1038693;28;20096;-83
2021/01/06 09:53:58;;;;;;;48.97;27.48;;;;;;;-0.72;96.47;95324.53;1043206;28;20059;-82
2021/01/06 09:54:28;;;;;;;54.97;28.83;;;;;;;-0.76;97.20;95333.75;1043066;28;20022;-83
2021/01/06 09:54:59;;;;;;;52.65;28.98;;;;;;;-0.74;97.03;95329.13;1041624;28;20025;-84
2021/01/06 09:55:29;;;;;;;49.15;26.90;;;;;;;-0.73;97.08;95325.53;1044116;28;20083;-83
2021/01/06 09:56:00;;;;;;;48.25;27.90;;;;;;;-0.72;97.53;95329.75;1048229;28;20036;-84
2021/01/06 09:56:31;;;;;;;48.13;27.52;;;;;;;-0.70;97.11;95327.75;1044730;28;20029;-83
2021/01/06 09:57:01;;;;;;;51.95;28.50;;;;;;;-0.70;96.58;95329.56;1040485;28;20017;-83
2021/01/06 09:57:32;;;;;;;50.67;28.48;;;;;;;-0.66;96.49;95326.34;1040159;28;20036;-82
2021/01/06 09:58:30;;;;;;;52.13;29.13;;;;;;;-0.67;97.06;95324.75;1039942;28;20549;-84
2021/01/06 09:59:05;;;;;;;48.55;26.45;;;;;;;-0.65;96.64;95329.75;1043682;28;20076;-82
2021/01/06 09:59:35;;;;;;;48.47;27.85;;;;;;;-0.67;97.21;95324.75;1044219;28;20025;-83
2021/01/06 10:00:31;;;;;;;52.45;28.58;;;;;;;-0.66;96.76;95325.56;1044232;28;20089;-83
2021/01/06 10:01:29;;;;;;;49.33;27.10;;;;;;;-0.72;95.75;95334.94;1037349;28;20034;-81
2021/01/06 10:02:30;;;;;;;49.53;27.38;;;;;;;-0.73;96.10;95328.13;1055846;28;20036;-84
2021/01/06 10:03:00;;;;;;;46.85;25.90;;;;;;;-0.76;96.49;95327.75;1056683;28;20040;-83
2021/01/06 10:03:32;;;;;;;48.22;28.10;;;;;;;-0.76;96.40;95331.13;1048016;28;20466;-83
2021/01/06 10:04:15;;;;;;;49.90;27.08;;;;;;;-0.77;96.56;95328.75;1047790;28;20028;-82
2021/01/06 10:04:45;;;;;;;54.72;29.42;;;;;;;-0.80;96.58;95324.75;1048095;28;20028;-84
2021/01/06 10:05:53;;;;;;;50.28;28.80;;;;;;;-0.89;96.97;95326.72;1052051;28;20036;-83
2021/01/06 10:06:47;;;;;;;54.00;29.13;;;;;;;-0.83;96.43;95325.09;1050324;28;20032;-83
2021/01/06 10:07:36;;;;;;;52.80;27.17;;;;;;;-0.93;96.46;95320.31;1048090;28;20109;-83
2021/01/06 10:08:27;;;;;;;51.00;27.50;;;;;;;-0.84;96.93;95327.91;1053394;28;20045;-83
2021/01/06 10:09:01;;;;;;;52.33;28.33;;;;;;;-0.86;97.18;95325.50;1051397;28;20036;-83
2021/01/06 10:09:37;;;;;;;55.22;29.08;;;;;;;-0.81;97.13;95327.53;1052245;28;20016;-83
2021/01/06 10:10:13;;;;;;;50.55;28.45;;;;;;;-0.82;96.73;95311.13;1049545;28;20025;-83
2021/01/06 10:10:43;;;;;;;49.08;27.50;;;;;;;-0.76;96.77;95325.94;1049490;28;20176;-81
2021/01/06 10:11:51;;;;;;;51.28;28.70;;;;;;;-0.73;97.20;95328.13;1049874;28;20108;-82
2021/01/06 10:12:39;;;;;;;51.58;28.00;;;;;;;-0.76;96.72;95325.13;1053259;28;20470;-82
2021/01/06 10:13:34;;;;;;;54.35;29.20;;;;;;;-0.76;96.40;95330.34;1056770;28;20031;-84
2021/01/06 10:14:28;;;;;;;49.80;28.40;;;;;;;-0.77;96.49;95329.53;1048281;28;20039;-83
2021/01/06 10:15:35;;;;;;;56.88;28.65;;;;;;;-0.83;96.29;95330.31;1050237;28;20595;-84
2021/01/06 10:16:07;;;;;;;53.47;29.27;;;;;;;-0.86;96.84;95330.72;1048384;28;20079;-84
2021/01/06 10:16:43;;;;;;;54.80;31.27;;;;;;;-0.84;97.51;95320.91;1050925;28;20039;-81
2021/01/06 10:17:18;;;;;;;51.35;27.63;;;;;;;-0.84;97.25;95330.50;1052223;28;20452;-78
2021/01/06 10:18:14;;;;;;;54.47;30.08;;;;;;;-0.79;97.54;95323.72;1049158;28;20036;-76
2021/01/06 10:19:03;;;;;;;52.35;27.73;;;;;;;-0.77;97.08;95326.94;1034171;28;20035;-76
2021/01/06 10:20:08;;;;;;;49.75;28.48;;;;;;;-0.71;96.79;95323.56;1050971;28;20448;-71
2021/01/06 10:21:01;;;;;;;51.05;27.73;;;;;;;-0.67;97.02;95327.38;1051073;28;20035;-86
2021/01/06 10:21:45;;;;;;;54.45;29.13;;;;;;;-0.66;97.18;95320.34;1051623;28;20035;-80
2021/01/06 10:22:31;;;;;;;50.47;27.10;;;;;;;-0.66;96.90;95323.75;1044695;28;20016;-79
2021/01/06 10:23:35;;;;;;;47.90;27.25;;;;;;;-0.63;96.82;95319.94;1052490;28;20024;-78
2021/01/06 10:24:17;;;;;;;45.47;26.65;;;;;;;-0.63;97.38;95318.16;1047378;28;20039;-75
2021/01/06 10:25:02;;;;;;;49.70;27.33;;;;;;;-0.67;97.05;95316.94;1054640;28;20032;-75
2021/01/06 10:25:37;;;;;;;57.20;29.08;;;;;;;-0.66;97.24;95321.16;1053616;28;20021;-87
2021/01/06 10:26:44;;;;;;;56.40;30.77;;;;;;;-0.64;96.45;95313.16;1053089;28;20062;-85
2021/01/06 10:27:27;;;;;;;47.17;27.27;;;;;;;-0.64;96.69;95318.34;1053196;28;20031;-87
2021/01/06 10:28:20;;;;;;;48.25;26.55;;;;;;;-0.64;96.67;95320.94;1053282;28;20100;-86
2021/01/06 10:28:51;;;;;;;51.65;27.75;;;;;;;-0.66;96.80;95318.56;1033643;28;20035;-87
2021/01/06 10:29:37;;;;;;;52.10;28.48;;;;;;;-0.69;96.79;95316.34;1038018;28;20033;-87
2021/01/06 10:30:13;;;;;;;53.47;29.40;;;;;;;-0.63;97.06;95318.16;1056217;28;20028;-89
2021/01/06 10:30:59;;;;;;;54.25;28.88;;;;;;;-0.60;96.90;95320.34;1051720;28;20020;-78
2021/01/06 10:31:29;;;;;;;57.22;30.58;;;;;;;-0.64;96.64;95319.16;1055070;28;20034;-81
2021/01/06 10:32:12;;;;;;;54.35;30.15;;;;;;;-0.61;97.30;95308.34;1057812;28;20500;-78
2021/01/06 10:32:49;;;;;;;55.65;29.95;;;;;;;-0.66;96.94;95315.94;1054310;28;20024;-79
2021/01/06 10:33:21;;;;;;;54.35;30.23;;;;;;;-0.66;96.96;95315.16;1053839;28;20614;-80
2021/01/06 10:34:06;;;;;;;60.28;30.25;;;;;;;-0.61;96.90;95313.53;1055939;28;20100;-79
2021/01/06 10:34:37;;;;;;;53.85;29.80;;;;;;;-0.64;96.34;95313.94;1053892;28;20477;-81
2021/01/06 10:35:36;;;;;;;55.22;30.10;;;;;;;-0.63;96.56;95312.16;1054418;28;20064;-81
2021/01/06 10:36:34;;;;;;;54.17;28.85;;;;;;;-0.60;96.15;95309.94;1049525;28;20087;-78
2021/01/06 10:37:08;;;;;;;58.58;30.70;;;;;;;-0.58;96.84;95314.97;1051521;28;20020;-78
2021/01/06 10:37:42;;;;;;;53.03;29.10;;;;;;;-0.66;96.54;95310.75;1052714;28;20434;-79
2021/01/06 10:38:21;;;;;;;56.90;30.08;;;;;;;-0.66;96.60;95312.53;1052217;28;20398;-77
2021/01/06 10:38:52;;;;;;;55.05;29.77;;;;;;;-0.66;96.33;95315.16;1054191;28;20021;-79
2021/01/06 10:39:27;;;;;;;53.00;29.33;;;;;;;-0.65;97.00;95307.13;1048225;28;20029;-78
2021/01/06 10:40:20;;;;;;;56.50;31.13;;;;;;;-0.59;96.39;95305.56;1044575;28;20021;-81
2021/01/06 10:40:52;;;;;;;54.85;30.10;;;;;;;-0.60;96.95;95312.53;1040095;28;20104;-80
2021/01/06 10:41:27;;;;;;;57.72;31.30;;;;;;;-0.60;96.61;95315.16;1047976;28;20096;-79
2021/01/06 10:42:02;;;;;;;58.45;30.38;;;;;;;-0.56;97.08;95309.56;1051520;28;20017;-78
2021/01/06 10:42:36;;;;;;;50.25;29.40;;;;;;;-0.60;96.93;95314.34;1050098;28;20373;-77
2021/01/06 10:43:35;;;;;;;53.08;29.60;;;;;;;-0.65;96.46;95309.75;1045123;28;20472;-77
2021/01/06 10:44:11;;;;;;;56.13;30.27;;;;;;;-0.60;96.34;95303.94;1042132;28;20024;-77
2021/01/06 10:44:51;;;;;;;53.50;29.33;;;;;;;-0.52;95.89;95308.16;1042005;28;20537;-79
2021/01/06 10:45:24;;;;;;;54.85;30.60;;;;;;;-0.54;96.53;95304.94;1049461;28;20029;-79
2021/01/06 10:45:54;;;;;;;59.22;31.77;;;;;;;-0.58;96.23;95316.78;1051504;28;20082;-80
2021/01/06 10:46:44;;;;;;;55.58;29.45;;;;;;;-0.58;96.03;95301.16;1054543;28;20192;-81
2021/01/06 10:47:29;;;;;;;52.60;29.30;;;;;;;-0.66;96.70;95309.94;1048276;28;20032;-81
2021/01/06 10:48:02;;;;;;;57.88;30.42;;;;;;;-0.67;96.55;95303.94;1049439;28;20024;-73
2021/01/06 10:48:43;;;;;;;57.40;29.98;;;;;;;-0.65;96.33;95307.13;1046100;28;20107;-75
2021/01/06 10:49:46;;;;;;;52.65;28.55;;;;;;;-0.67;95.92;95309.16;1055205;28;20105;-74
2021/01/06 10:50:22;;;;;;;55.45;28.13;;;;;;;-0.63;95.74;95312.16;1052615;28;20039;-74
2021/01/06 10:50:53;;;;;;;49.13;28.50;;;;;;;-0.62;95.74;95311.13;1052882;28;20134;-73
2021/01/06 10:52:00;;;;;;;54.22;28.80;;;;;;;-0.66;95.71;95310.75;1053110;28;20074;-73
2021/01/06 10:52:35;;;;;;;54.35;30.05;;;;;;;-0.57;96.47;95311.38;1053448;28;20048;-74
2021/01/06 10:53:17;;;;;;;55.40;29.92;;;;;;;-0.57;96.13;95307.97;1054986;28;20036;-76
2021/01/06 10:53:47;;;;;;;56.53;30.67;;;;;;;-0.56;96.16;95312.16;1057191;28;20023;-75
2021/01/06 10:54:21;;;;;;;55.50;29.63;;;;;;;-0.51;95.80;95309.75;1053072;28;20491;-74
2021/01/06 10:55:18;;;;;;;48.88;28.02;;;;;;;-0.55;95.79;95308.56;1049126;28;20016;-72
2021/01/06 10:56:13;;;;;;;57.67;31.20;;;;;;;-0.51;95.81;95301.94;1045805;28;20458;-73
2021/01/06 10:56:44;;;;;;;56.00;29.52;;;;;;;-0.54;95.85;95312.75;1047975;28;20028;-73
2021/01/06 10:57:14;;;;;;;53.45;28.92;;;;;;;-0.49;95.82;95305.16;1048774;28;20136;-74
2021/01/06 10:57:50;;;;;;;55.90;29.60;;;;;;;-0.53;95.93;95307.34;1048787;28;20028;-76
2021/01/06 10:58:33;;;;;;;53.47;30.42;;;;;;;-0.50;95.44;95303.53;1045206;28;20033;-76
2021/01/06 10:59:04;;;;;;;48.97;28.45;;;;;;;-0.48;95.49;95306.75;1051249;28;20730;-73
2021/01/06 10:59:34;;;;;;;65.05;31.00;;;;;;;-0.46;95.46;95304.78;1048892;28;20024;-75
2021/01/06 11:00:15;;;;;;;54.75;30.65;;;;;;;-0.48;95.22;95311.94;1049248;28;20031;-76
2021/01/06 11:00:59;;;;;;;54.38;30.08;;;;;;;-0.46;95.04;95308.16;1048861;28;20575;-75
2021/01/06 11:01:53;;;;;;;53.88;29.67;;;;;;;-0.54;95.48;95313.56;1047105;28;20032;-78
2021/01/06 11:02:28;;;;;;;51.05;28.60;;;;;;;-0.44;95.28;95307.97;1048731;28;20075;-74
2021/01/06 11:03:12;;;;;;;52.30;29.20;;;;;;;-0.43;95.21;95304.38;1044934;28;20028;-76
2021/01/06 11:04:18;;;;;;;55.08;29.73;;;;;;;-0.40;94.93;95299.56;1040592;28;20033;-72
2021/01/06 11:05:02;;;;;;;51.13;28.67;;;;;;;-0.46;95.67;95310.78;1050007;28;20044;-73
2021/01/06 11:05:52;;;;;;;50.55;28.85;;;;;;;-0.45;95.29;95309.78;1045561;28;20096;-77
2021/01/06 11:06:42;;;;;;;52.47;28.67;;;;;;;-0.48;95.76;95306.75;1048203;28;20456;-75
2021/01/06 11:07:33;;;;;;;52.13;29.13;;;;;;;-0.52;95.19;95313.34;1046650;28;20092;-75
2021/01/06 11:08:31;;;;;;;48.90;26.92;;;;;;;-0.49;94.70;95305.94;1053436;28;20545;-75
2021/01/06 11:09:32;;;;;;;46.78;26.42;;;;;;;-0.47;94.79;95309.19;1050762;28;20021;-75
2021/01/06 11:10:39;;;;;;;51.88;28.52;;;;;;;-0.60;94.98;95303.94;1040107;28;20518;-74
2021/01/06 11:11:34;;;;;;;54.90;27.90;;;;;;;-0.60;94.92;95315.16;1054623;28;20028;-73
2021/01/06 11:12:24;;;;;;;55.33;28.63;;;;;;;-0.58;95.29;95301.16;1055940;28;20053;-74
2021/01/06 11:12:57;;;;;;;52.63;28.58;;;;;;;-0.52;96.19;95311.56;1050018;28;20048;-75
2021/01/06 11:13:52;;;;;;;50.30;28.20;;;;;;;-0.55;95.52;95301.56;1052229;28;20060;-75
2021/01/06 11:15:01;;;;;;;51.05;27.75;;;;;;;-0.52;95.37;95300.34;1055344;28;20076;-75
2021/01/06 11:15:40;;;;;;;52.03;28.60;;;;;;;-0.62;95.83;95311.94;1055665;28;20048;-75
2021/01/06 11:16:23;;;;;;;54.17;29.08;;;;;;;-0.57;95.20;95307.97;1057856;28;20092;-74
2021/01/06 11:16:56;;;;;;;54.75;28.90;;;;;;;-0.66;95.44;95309.94;1051945;28;20845;-73
2021/01/06 11:17:33;;;;;;;52.30;28.73;;;;;;;-0.70;95.81;95306.94;1047457;28;20107;-74
2021/01/06 11:18:22;;;;;;;51.53;29.50;;;;;;;-0.58;95.82;95306.38;1048556;28;20053;-73
2021/01/06 11:18:54;;;;;;;54.08;29.10;;;;;;;-0.58;95.85;95301.97;1051935;28;20568;-74
2021/01/06 11:19:44;;;;;;;56.13;30.90;;;;;;;-0.54;95.75;95299.75;1056935;28;20016;-75
2021/01/06 11:20:26;;;;;;;53.80;30.35;;;;;;;-0.51;95.93;95304.53;1056137;28;20108;-75
2021/01/06 11:21:41;;;;;;;58.10;28.33;;;;;;;-0.57;95.01;95302.75;1057076;28;20016;-75
2021/01/06 11:22:32;;;;;;;50.80;27.65;;;;;;;-0.58;95.45;95304.56;1041402;28;20038;-74
2021/01/06 11:23:29;;;;;;;53.30;28.38;;;;;;;-0.60;95.54;95304.72;1039055;28;20045;-74
2021/01/06 11:24:00;;;;;;;48.45;27.48;;;;;;;-0.62;95.95;95300.72;1036574;28;20030;-75
2021/01/06 11:24:50;;;;;;;50.35;28.60;;;;;;;-0.53;95.65;95301.34;1037046;28;20000;-75
2021/01/06 11:25:50;;;;;;;49.88;28.17;;;;;;;-0.49;96.00;95303.34;1039445;28;20080;-75
2021/01/06 11:26:20;;;;;;;54.42;28.35;;;;;;;-0.50;95.63;95304.34;1042258;28;20088;-75
2021/01/06 11:26:52;;;;;;;56.65;30.30;;;;;;;-0.55;95.63;95300.75;1037961;28;20345;-75
2021/01/06 11:27:43;;;;;;;57.28;29.83;;;;;;;-0.49;95.60;95299.94;1039685;28;20025;-75
2021/01/06 11:28:27;;;;;;;53.15;28.50;;;;;;;-0.55;95.73;95298.16;1053210;28;20037;-75
2021/01/06 11:29:12;;;;;;;48.97;25.63;;;;;;;-0.48;95.98;95310.16;1050912;28;20457;-75
2021/01/06 11:29:53;;;;;;;52.75;28.92;;;;;;;-0.45;95.61;95306.38;1052982;28;20040;-74
2021/01/06 11:30:34;;;;;;;56.00;29.80;;;;;;;-0.47;95.61;95305.78;1051595;28;20488;-76
2021/01/06 11:31:20;;;;;;;49.60;28.55;;;;;;;-0.50;95.60;95308.75;1052704;28;20039;-75
2021/01/06 11:31:56;;;;;;;53.78;29.52;;;;;;;-0.50;95.16;95306.16;1052752;28;20032;-75
2021/01/06 11:32:31;;;;;;;49.10;28.02;;;;;;;-0.49;96.24;95305.94;1053935;28;20496;-75
2021/01/06 11:33:13;;;;;;;52.63;28.42;;;;;;;-0.51;95.60;95296.75;1045828;28;20024;-75
2021/01/06 11:33:44;;;;;;;50.55;27.88;;;;;;;-0.51;95.41;95301.94;1044533;28;20110;-74
2021/01/06 11:34:14;;;;;;;47.13;27.15;;;;;;;-0.52;95.28;95295.94;1040557;28;20017;-74
2021/01/06 11:34:47;;;;;;;53.40;29.25;;;;;;;-0.47;95.36;95292.75;1046748;28;20441;-75
2021/01/06 11:35:24;;;;;;;46.92;27.90;;;;;;;-0.44;94.94;95298.34;1047388;28;20021;-75
2021/01/06 11:36:15;;;;;;;47.17;27.70;;;;;;;-0.41;95.08;95302.34;1041385;28;20013;-74
2021/01/06 11:36:56;;;;;;;49.42;27.55;;;;;;;-0.43;94.92;95304.38;1029888;28;20615;-75
2021/01/06 11:37:33;;;;;;;45.10;25.77;;;;;;;-0.37;94.77;95298.34;1049219;28;20040;-75
2021/01/06 11:38:04;;;;;;;48.78;27.40;;;;;;;-0.41;94.27;95297.16;1051155;28;20012;-73
2021/01/06 11:38:40;;;;;;;45.72;26.30;;;;;;;-0.46;94.48;95295.16;1048565;28;20025;-73
2021/01/06 11:39:35;;;;;;;53.35;27.73;;;;;;;-0.45;94.72;95295.97;1048542;28;20024;-75
2021/01/06 11:40:10;;;;;;;48.50;27.98;;;;;;;-0.45;94.80;95301.16;1049619;28;20104;-73
2021/01/06 11:40:48;;;;;;;51.88;29.13;;;;;;;-0.50;95.21;95301.75;1049611;28;20035;-75
2021/01/06 11:41:24;;;;;;;50.88;28.20;;;;;;;-0.55;95.89;95300.75;1052963;28;20024;-74
2021/01/06 11:41:59;;;;;;;52.78;29.45;;;;;;;-0.49;96.31;95290.31;1052508;28;20100;-74
2021/01/06 11:42:52;;;;;;;53.83;28.67;;;;;;;-0.46;95.96;95302.97;1044329;28;20019;-74
2021/01/06 11:43:48;;;;;;;49.83;28.00;;;;;;;-0.43;95.30;95294.75;1037386;28;20018;-74
2021/01/06 11:44:31;;;;;;;51.10;27.80;;;;;;;-0.48;95.66;95301.53;1047829;28;20020;-74
2021/01/06 11:45:04;;;;;;;47.15;27.40;;;;;;;-0.42;95.45;95305.97;1052652;28;20012;-74
2021/01/06 11:45:55;;;;;;;54.47;28.95;;;;;;;-0.53;95.60;95298.75;1057019;28;20015;-74
2021/01/06 11:46:25;;;;;;;48.10;27.67;;;;;;;-0.51;95.74;95301.94;1055573;27;20039;-74
2021/01/06 11:47:02;;;;;;;51.47;28.20;;;;;;;-0.49;96.33;95299.94;1054078;28;20763;-73
2021/01/06 11:47:52;;;;;;;47.70;27.85;;;;;;;-0.48;96.07;95291.13;1052519;28;20008;-74
2021/01/06 11:48:43;;;;;;;49.13;26.17;;;;;;;-0.51;95.83;95299.34;1050876;28;20024;-73
2021/01/06 11:49:22;;;;;;;57.85;30.52;;;;;;;-0.48;95.92;95291.13;1039775;28;20026;-74
2021/01/06 11:49:55;;;;;;;47.95;27.17;;;;;;;-0.47;95.62;95297.97;1043986;28;20028;-73
2021/01/06 11:50:32;;;;;;;49.75;27.10;;;;;;;-0.46;95.65;95289.16;1041641;28;20367;-73
2021/01/06 11:51:20;;;;;;;54.80;29.25;;;;;;;-0.44;95.95;95290.53;1049185;28;20378;-73
2021/01/06 11:52:09;;;;;;;56.63;28.55;;;;;;;-0.47;95.59;95287.56;1050114;28;20028;-74
2021/01/06 11:52:44;;;;;;;49.90;27.75;;;;;;;-0.48;95.92;95291.94;1052168;28;20027;-74
2021/01/06 11:53:24;;;;;;;47.22;26.48;;;;;;;-0.47;95.53;95285.75;1049679;28;20028;-74
2021/01/06 11:54:07;;;;;;;50.13;28.13;;;;;;;-0.40;95.31;95283.13;1050755;28;20039;-76
2021/01/06 11:54:38;;;;;;;52.65;28.38;;;;;;;-0.40;95.68;95293.53;1046946;28;20036;-74
2021/01/06 11:55:23;;;;;;;52.70;28.15;;;;;;;-0.47;95.65;95282.34;1040948;28;20021;-74
2021/01/06 11:56:06;;;;;;;54.50;28.50;;;;;;;-0.47;95.60;95290.16;1042950;28;20123;-76
2021/01/06 11:56:40;;;;;;;45.50;26.17;;;;;;;-0.45;95.74;95290.75;1045399;28;20032;-74
2021/01/06 11:57:29;;;;;;;48.97;26.65;;;;;;;-0.48;95.24;95285.91;1045864;28;20060;-75
2021/01/06 11:58:10;;;;;;;45.75;26.23;;;;;;;-0.40;95.69;95289.13;1043725;28;20127;-74
2021/01/06 11:59:19;;;;;;;43.15;24.95;;;;;;;-0.39;95.60;95279.53;1049381;28;20071;-74
2021/01/06 11:59:59;;;;;;;47.95;25.73;;;;;;;-0.39;94.41;95284.72;1060521;27;20045;-74
2021/01/06 12:00:42;;;;;;;44.92;25.25;;;;;;;-0.37;95.03;95290.53;1055934;28;20051;-74
2021/01/06 12:01:31;;;;;;;40.33;25.23;;;;;;;-0.38;94.69;95291.53;1052029;28;20081;-74
2021/01/06 12:02:12;;;;;;;46.80;24.75;;;;;;;-0.38;94.31;95284.53;1050844;28;20031;-75
2021/01/06 12:02:56;;;;;;;44.92;24.02;;;;;;;-0.34;94.36;95282.34;1053573;28;20044;-74
2021/01/06 12:03:37;;;;;;;42.03;24.83;;;;;;;-0.34;94.39;95284.94;1049566;28;20054;-75
2021/01/06 12:04:24;;;;;;;44.95;24.20;;;;;;;-0.32;94.08;95280.34;1044482;28;20027;-74
2021/01/06 12:05:18;;;;;;;51.00;28.67;;;;;;;-0.35;94.43;95283.34;1050416;28;20024;-75
2021/01/06 12:06:05;;;;;;;46.42;24.20;;;;;;;-0.46;94.39;95278.75;1047452;28;20016;-77
2021/01/06 12:06:44;;;;;;;48.30;28.55;;;;;;;-0.43;94.83;95288.75;1048201;28;20114;-76
2021/01/06 12:07:24;;;;;;;50.25;28.40;;;;;;;-0.39;94.75;95279.53;1040975;28;20060;-75
2021/01/06 12:08:11;;;;;;;49.22;26.70;;;;;;;-0.37;95.06;95277.50;1044035;28;20611;-75
2021/01/06 12:09:07;;;;;;;45.65;24.58;;;;;;;-0.38;94.76;95281.13;1043828;28;20020;-76
2021/01/06 12:10:05;;;;;;;43.95;24.05;;;;;;;-0.35;95.08;95280.75;1044938;28;20031;-77
2021/01/06 12:11:13;;;;;;;41.80;24.33;;;;;;;-0.43;94.24;95278.31;1029475;28;20031;-75
2021/01/06 12:12:04;;;;;;;40.35;22.92;;;;;;;-0.37;94.66;95274.91;1047722;28;20028;-76
2021/01/06 12:13:03;;;;;;;42.15;24.08;;;;;;;-0.44;94.79;95282.75;1043732;28;20417;-74
2021/01/06 12:13:43;;;;;;;45.17;24.58;;;;;;;-0.46;95.05;95279.53;1039429;28;20521;-76
2021/01/06 12:14:31;;;;;;;46.15;24.75;;;;;;;-0.48;94.63;95275.50;1038147;28;20018;-76
2021/01/06 12:15:01;;;;;;;46.00;25.08;;;;;;;-0.49;95.01;95276.50;1045289;28;20032;-76
2021/01/06 12:15:39;;;;;;;41.63;25.33;;;;;;;-0.44;94.68;95274.13;1044235;28;20450;-78
2021/01/06 12:16:15;;;;;;;45.60;25.40;;;;;;;-0.47;94.30;95280.53;1038421;28;20016;-81
2021/01/06 12:17:04;;;;;;;45.78;25.67;;;;;;;-0.48;94.70;95278.13;1038808;28;20024;-80
2021/01/06 12:17:37;;;;;;;44.55;24.85;;;;;;;-0.47;94.79;95279.75;1044183;28;20188;-77
2021/01/06 12:18:33;;;;;;;49.80;25.73;;;;;;;-0.47;95.15;95277.13;1050925;28;20476;-79
2021/01/06 12:19:28;;;;;;;45.15;25.05;;;;;;;-0.51;94.93;95275.91;1050770;28;20067;-76
2021/01/06 12:20:08;;;;;;;42.08;24.38;;;;;;;-0.45;95.61;95280.34;1044742;28;20017;-78
2021/01/06 12:20:44;;;;;;;45.05;25.23;;;;;;;-0.46;95.48;95282.13;1048203;28;20013;-77
2021/01/06 12:21:35;;;;;;;44.03;25.13;;;;;;;-0.47;94.91;95282.34;1043955;28;20053;-77
2021/01/06 12:22:05;;;;;;;44.20;24.67;;;;;;;-0.45;95.29;95282.94;1048270;28;20083;-77
2021/01/06 12:22:36;;;;;;;39.85;24.40;;;;;;;-0.43;95.21;95278.31;1048458;28;20418;-77
2021/01/06 12:23:15;;;;;;;41.95;24.95;;;;;;;-0.48;95.06;95278.13;1052202;28;20008;-77
2021/01/06 12:23:46;;;;;;;42.17;24.85;;;;;;;-0.46;95.06;95287.34;1053100;28;20372;-77
2021/01/06 12:24:28;;;;;;;40.90;23.30;;;;;;;-0.46;94.94;95289.16;1052781;28;20091;-77
2021/01/06 12:25:01;;;;;;;43.58;24.45;;;;;;;-0.44;94.13;95277.53;1052692;28;20465;-77
2021/01/06 12:25:40;;;;;;;46.00;26.38;;;;;;;-0.44;94.71;95287.94;1048036;28;20013;-77
2021/01/06 12:26:40;;;;;;;47.50;25.20;;;;;;;-0.47;94.94;95279.75;1048396;28;20024;-77
2021/01/06 12:27:10;;;;;;;42.42;24.27;;;;;;;-0.48;95.28;95280.72;1037476;28;20034;-79
2021/01/06 12:27:59;;;;;;;40.75;23.75;;;;;;;-0.43;95.70;95286.94;1045288;28;20025;-78
2021/01/06 12:28:56;;;;;;;42.80;24.10;;;;;;;-0.42;95.07;95287.75;1048490;28;20020;-77
2021/01/06 12:29:29;;;;;;;43.65;23.50;;;;;;;-0.42;94.98;95282.53;1042448;28;20058;-78
2021/01/06 12:30:11;;;;;;;42.72;24.50;;;;;;;-0.40;95.32;95288.34;1038801;28;20018;-78
2021/01/06 12:30:44;;;;;;;44.72;24.48;;;;;;;-0.39;95.19;95285.53;1041300;28;20014;-77
2021/01/06 12:31:15;;;;;;;42.28;24.48;;;;;;;-0.37;94.93;95278.31;1042005;28;20018;-78
2021/01/06 12:31:53;;;;;;;43.35;24.00;;;;;;;-0.42;95.10;95285.94;1044377;28;20483;-78
2021/01/06 12:32:41;;;;;;;45.90;25.60;;;;;;;-0.35;95.33;95286.75;1040561;28;20021;-77
2021/01/06 12:33:29;;;;;;;40.50;23.40;;;;;;;-0.28;95.38;95280.72;1038930;28;20051;-77
2021/01/06 12:34:07;;;;;;;42.22;24.73;;;;;;;-0.35;95.63;95284.16;1038278;28;20040;-78
2021/01/06 12:34:39;;;;;;;44.13;24.95;;;;;;;-0.35;95.10;95288.56;1040305;28;20014;-77
2021/01/06 12:35:19;;;;;;;44.22;24.80;;;;;;;-0.37;95.07;95287.94;1040373;28;20025;-77
2021/01/06 12:35:49;;;;;;;46.92;25.52;;;;;;;-0.38;95.47;95281.91;1045559;28;20132;-77
2021/01/06 12:36:28;;;;;;;44.72;25.20;;;;;;;-0.40;95.74;95286.53;1042043;28;20025;-77
2021/01/06 12:37:21;;;;;;;40.15;23.98;;;;;;;-0.36;95.25;95286.94;1047362;28;20099;-77
2021/01/06 12:38:11;;;;;;;45.03;24.38;;;;;;;-0.42;95.37;95285.94;1044124;28;20040;-77
2021/01/06 12:38:42;;;;;;;44.83;25.08;;;;;;;-0.35;95.46;95291.16;1045939;28;20010;-76
2021/01/06 12:39:26;;;;;;;45.10;24.88;;;;;;;-0.31;95.51;95292.34;1045955;28;20021;-77
2021/01/06 12:40:29;;;;;;;46.80;25.23;;;;;;;-0.34;95.44;95292.75;1048726;28;20091;-77
2021/01/06 12:41:05;;;;;;;43.17;23.10;;;;;;;-0.31;95.45;95284.53;1027759;28;20025;-79
2021/01/06 12:41:46;;;;;;;40.45;24.40;;;;;;;-0.36;95.63;95286.94;1027795;28;20027;-76
2021/01/06 12:42:32;;;;;;;38.47;22.35;;;;;;;-0.35;95.40;95288.56;1046784;28;20032;-76
2021/01/06 12:43:04;;;;;;;41.92;23.92;;;;;;;-0.31;94.74;95290.53;1045885;28;20406;-77